Friday, August 26, 2016
12:00 UTC
  |  Log In   |  Register Free
Airport Search:

Pocono Mountains Municipal Airport
(KMPO)

Pocono Mountains Municipal Airport Diagram
No Airport Diagram Available

FAA data valid effective Jul 21 2016 - Sep 15 2016 (unless otherwise noted).

 
 
 
 
 
 
 
 
 
 
 
 
 
 
Current Aviation Weather for KMPO

Weather Summary


The most recent METAR observation for MPO was updated at: 12:53 UTC
METAR for MPO is not available. Closest METAR is for
METAR

METAR KMPO 261153Z 29009KT 10SM SCT006 22/21 A3008 RMK AO2 SLP173 60001 70001 T02170206 10217 20206 51012

METAR KMPO 261139Z 29011KT 10SM BKN006 21/21 A3008 RMK AO2 CIG004V009 T02110206

METAR KMPO 261053Z 29011KT 6SM BR OVC004 21/21 A3007 RMK AO2 SLP170 T02110206

METAR KMPO 261031Z 29007KT 8SM BKN005 21/20 A3007 RMK AO2 T02110200

METAR KMPO 261019Z 29007KT 9SM SCT006 21/20 A3007 RMK AO2 T02060200

METAR KMPO 260953Z 28007KT 10SM CLR 21/ A3005 RMK AO2 SLP165 P0001 T0206

METAR K12N 261154Z 00000KT 23/22 A3003 RMK AO1 SLP160 T02330222 10233 20206 53011

METAR K22N 261135Z 00000KT M1/4SM FG OVC001 20/20 A3004 RMK AO2

METAR KABE 261151Z 27004KT 4SM BR CLR 24/22 A3003 RMK AO2 SLP164 T02440222 10244 20211 53012 $

TAF for MPO is not available.
TAF

KAVP - TAF KAVP 261120Z 2612/2712 VRB05KT P6SM BKN070

KAVP - FM261400 30006KT P6SM BKN060

KAVP - FM261600 32007KT P6SM SCT110

KAVP - FM270200 VRB04KT P6SM SKC =

KABE - TAF KABE 261120Z 2612/2712 VRB03KT P6SM BKN100

KABE - TEMPO 2612/2614 3SM BR

KABE - FM261400 31008KT P6SM FEW050

KABE - FM262300 34005KT P6SM SCT250

KABE - FM270200 VRB03KT P6SM SKC =

GlobalAir.com is loading additional information.
 Current Weather at MPO
70.0 F° (21.1 C°)

West winds at 12.7 mph
Pressure:
30.07 in
Humidity:
97%
Wind:
West at 12.7 mph
Dew Point:
69.1 F° (20.6 C°)
Visibility:
6.00 mi
MPO NOAA Radar




Find All Airport Services Find A Hotel Find A Rental Car Find A Golf Course Find A Restaurant $100 Hamburger



Airport Weather Forecast for KMPO

Translated METAR for KMPO (1153 UTC)
METAR:
KMPO 261153Z AUTO Pocono Mountains Municipal, Mount Pocono, PA (KMPO). Aug 26, 1153Z, Automated. Wind from 290° at 9 knots, 10 statute miles visibility, Scattered Clouds at 600 feet, Temperature 22°C, Dewpoint 21°C, Altimeter is 30.08. Remarks: automated station with precipitation discriminator sea level pressure 1017.3 hectopascals 0.01 inches precipitation (water equivalent) past 6 hours 0.01 inches precipitation (water equivalent) in past 24 hours hourly temp 21.7°C dewpoint 20.6°C 6-hour max temp 21.7°C 6-hour min temp 20.6°C 3-hour atmospheric pressure increasing, then steady, or increasing then increasing more slowly by 1.2 hectopascals
Conditions at:
KMPO (Pocono Mountains Muni, PA) observed 1153 UTC 26 August 2016
Temperature:
70.0 F° (21.1 C°)
Dewpoint:
not reported - refer to area weather report
Pressure:
30.07 Hg
Winds:
not reported
Visibility:
6.00
Ceiling:
at least 12,000 feet AGL
Clouds:
not reported - refer to area weather report
Remarks:
site is un-manned

Translated TAF for TAF for MPO is not available. Refer to local area forecast.
FBO's on the Field
FBO Company Facility Photos Services Transportation Aviation Fuel Prices: Prices include tax
Catering Weather Repair Courtesy Rental Type 100LL JetA JetA+ MOGAS 8087
 
Pocono Mountains Municipal Airport Authority

This FBO has not yet been rated
FS:Phillips 66
Last Updated: Aug-15
Login to update fuel prices
SS:
Contact Pocono Mountains Municipal Airport AuthorityMore FBO Information
 
Add another FBO Facility Photos Catering Weather Repair Courtesy Rental Type 100LL JetA JetA+ MOGAS 8087
Services Transportation Aviation Fuel Prices: Prices include tax


model-print
model-print
model-print
model-print